createdAt,value
2022-07-25T00:00:50.571Z,23.15
2022-07-25T00:01:50.597Z,23.15
2022-07-25T00:02:50.518Z,23.14
2022-07-25T00:03:50.614Z,23.13
2022-07-25T00:04:50.560Z,23.13
2022-07-25T00:05:50.492Z,23.11
2022-07-25T00:06:50.472Z,23.10
2022-07-25T00:07:50.479Z,23.08
2022-07-25T00:08:50.458Z,23.10
2022-07-25T00:09:50.471Z,23.10
2022-07-25T00:10:50.432Z,23.10
2022-07-25T00:11:50.423Z,23.08
2022-07-25T00:12:50.414Z,23.10
2022-07-25T00:13:50.438Z,23.10
2022-07-25T00:14:50.429Z,23.10
2022-07-25T00:15:50.433Z,23.07
2022-07-25T00:16:50.425Z,23.04
2022-07-25T00:17:50.422Z,23.06
2022-07-25T00:18:50.353Z,23.04
2022-07-25T00:19:50.395Z,23.03
2022-07-25T00:20:50.353Z,23.01
2022-07-25T00:21:50.322Z,23.01
2022-07-25T00:22:50.303Z,23.01
2022-07-25T00:23:50.302Z,22.99
2022-07-25T00:24:50.282Z,23.01
2022-07-25T00:25:50.313Z,22.99
2022-07-25T00:26:50.264Z,22.99
2022-07-25T00:27:50.263Z,22.99
2022-07-25T00:28:50.244Z,22.99
2022-07-25T00:29:50.232Z,22.99
2022-07-25T00:30:50.389Z,22.98
2022-07-25T00:31:50.313Z,22.98
2022-07-25T00:32:50.273Z,22.95
2022-07-25T00:33:50.234Z,22.89
2022-07-25T00:34:50.183Z,22.85
2022-07-25T00:35:50.177Z,22.81
2022-07-25T00:36:50.173Z,22.77
2022-07-25T00:37:50.189Z,22.74
2022-07-25T00:38:50.158Z,22.74
2022-07-25T00:39:50.124Z,22.73
2022-07-25T00:40:54.191Z,22.73
2022-07-25T00:41:51.107Z,22.71
2022-07-25T00:42:50.101Z,22.73
2022-07-25T00:43:50.121Z,22.70
2022-07-25T00:44:50.085Z,22.68
2022-07-25T00:45:51.786Z,22.68
2022-07-25T00:46:50.115Z,22.64
2022-07-25T00:47:50.075Z,22.61
2022-07-25T00:48:50.090Z,22.56
2022-07-25T00:49:50.025Z,22.55
2022-07-25T00:50:50.016Z,22.52
2022-07-25T00:51:57.048Z,22.51
2022-07-25T00:52:49.996Z,22.51
2022-07-25T00:53:50.009Z,22.51
2022-07-25T00:54:49.998Z,22.48
2022-07-25T00:55:49.959Z,22.49
2022-07-25T00:56:49.956Z,22.48
2022-07-25T00:57:49.927Z,22.48
2022-07-25T00:58:49.929Z,22.46
2022-07-25T00:59:49.979Z,22.44
2022-07-25T01:00:49.940Z,22.43
2022-07-25T01:01:49.925Z,22.41
2022-07-25T01:02:50.838Z,22.38
2022-07-25T01:03:49.869Z,22.38
2022-07-25T01:04:49.858Z,22.37
2022-07-25T01:05:53.563Z,22.36
2022-07-25T01:06:49.883Z,22.34
2022-07-25T01:07:49.830Z,22.31
2022-07-25T01:08:49.821Z,22.30
2022-07-25T01:09:49.808Z,22.28
2022-07-25T01:10:49.829Z,22.28
2022-07-25T01:11:49.809Z,22.28
2022-07-25T01:12:49.779Z,22.27
2022-07-25T01:13:49.769Z,22.27
2022-07-25T01:14:49.766Z,22.23
2022-07-25T01:15:49.775Z,22.23
2022-07-25T01:16:49.769Z,22.22
2022-07-25T01:17:49.750Z,22.21
2022-07-25T01:18:49.719Z,22.19
2022-07-25T01:19:49.701Z,22.18
2022-07-25T01:20:49.700Z,22.16
2022-07-25T01:21:49.681Z,22.19
2022-07-25T01:22:49.702Z,22.18
2022-07-25T01:23:49.661Z,22.18
2022-07-25T01:24:49.681Z,22.18
2022-07-25T01:25:49.641Z,22.18
2022-07-25T01:26:49.630Z,22.19
2022-07-25T01:27:54.606Z,22.19
2022-07-25T01:28:50.611Z,22.18
2022-07-25T01:29:49.601Z,22.18
2022-07-25T01:30:49.704Z,22.18
2022-07-25T01:31:49.571Z,22.18
2022-07-25T01:32:49.570Z,22.16
2022-07-25T01:33:49.552Z,22.18
2022-07-25T01:34:49.541Z,22.16
2022-07-25T01:35:49.571Z,22.16
2022-07-25T01:36:49.529Z,22.15
2022-07-25T01:37:49.513Z,22.13
2022-07-25T01:38:49.504Z,22.13
2022-07-25T01:39:49.492Z,22.12
2022-07-25T01:40:49.481Z,22.11
2022-07-25T01:41:49.515Z,22.11
2022-07-25T01:42:49.464Z,22.07
2022-07-25T01:43:49.441Z,22.07
2022-07-25T01:44:49.451Z,22.03
2022-07-25T01:45:49.442Z,22.03
2022-07-25T01:46:49.572Z,22.00
2022-07-25T01:47:49.442Z,21.98
2022-07-25T01:48:49.432Z,21.94
2022-07-25T01:49:49.392Z,21.91
2022-07-25T01:50:49.380Z,21.90
2022-07-25T01:51:49.363Z,21.88
2022-07-25T01:52:49.353Z,21.90
2022-07-25T01:53:49.392Z,21.90
2022-07-25T01:54:49.350Z,21.90
2022-07-25T01:55:49.312Z,21.88
2022-07-25T01:56:49.313Z,21.88
2022-07-25T01:57:49.869Z,21.85
2022-07-25T01:58:49.331Z,21.88
2022-07-25T01:59:49.277Z,21.85
2022-07-25T02:00:49.273Z,21.85
2022-07-25T02:01:49.408Z,21.85
2022-07-25T02:02:49.250Z,21.84
2022-07-25T02:03:49.254Z,21.82
2022-07-25T02:04:49.296Z,21.81
2022-07-25T02:05:49.246Z,21.80
2022-07-25T02:06:49.233Z,21.81
2022-07-25T02:07:49.204Z,21.80
2022-07-25T02:08:49.183Z,21.81
2022-07-25T02:09:52.166Z,21.81
2022-07-25T02:10:50.191Z,21.82
2022-07-25T02:11:49.173Z,21.81
2022-07-25T02:12:49.143Z,21.81
2022-07-25T02:13:49.123Z,21.81
2022-07-25T02:14:49.124Z,21.80
2022-07-25T02:15:49.104Z,21.78
2022-07-25T02:16:49.199Z,21.78
2022-07-25T02:17:49.086Z,21.77
2022-07-25T02:18:49.073Z,21.74
2022-07-25T02:19:49.054Z,21.73
2022-07-25T02:20:49.054Z,21.71
2022-07-25T02:21:49.073Z,21.71
2022-07-25T02:22:49.055Z,21.71
2022-07-25T02:23:49.013Z,21.73
2022-07-25T02:24:49.013Z,21.71
2022-07-25T02:25:49.000Z,21.71
2022-07-25T02:26:49.074Z,21.66
2022-07-25T02:27:48.975Z,21.65
2022-07-25T02:28:48.966Z,21.65
2022-07-25T02:29:48.955Z,21.62
2022-07-25T02:30:49.105Z,21.59
2022-07-25T02:31:49.015Z,21.59
2022-07-25T02:32:48.925Z,21.56
2022-07-25T02:33:48.916Z,21.53
2022-07-25T02:34:48.906Z,21.51
2022-07-25T02:35:48.895Z,21.50
2022-07-25T02:36:48.885Z,21.45
2022-07-25T02:37:48.906Z,21.45
2022-07-25T02:38:48.856Z,21.43
2022-07-25T02:39:48.847Z,21.43
2022-07-25T02:40:48.942Z,21.43
2022-07-25T02:41:48.826Z,21.43
2022-07-25T02:42:48.816Z,21.43
2022-07-25T02:43:48.826Z,21.43
2022-07-25T02:44:48.796Z,21.43
2022-07-25T02:45:48.818Z,21.41
2022-07-25T02:46:48.776Z,21.41
2022-07-25T02:47:48.756Z,21.38
2022-07-25T02:48:48.900Z,21.38
2022-07-25T02:49:48.727Z,21.40
2022-07-25T02:50:48.735Z,21.38
2022-07-25T02:51:48.718Z,21.40
2022-07-25T02:52:48.706Z,21.38
2022-07-25T02:53:57.329Z,21.35
2022-07-25T02:54:49.719Z,21.34
2022-07-25T02:55:48.763Z,21.30
2022-07-25T02:56:48.667Z,21.29
2022-07-25T02:57:48.647Z,21.28
2022-07-25T02:58:48.697Z,21.29
2022-07-25T02:59:48.627Z,21.29
2022-07-25T03:00:48.682Z,21.28
2022-07-25T03:01:48.680Z,21.28
2022-07-25T03:02:48.628Z,21.28
2022-07-25T03:03:48.658Z,21.29
2022-07-25T03:04:48.610Z,21.28
2022-07-25T03:05:48.569Z,21.28
2022-07-25T03:06:48.558Z,21.28
2022-07-25T03:07:48.546Z,21.29
2022-07-25T03:08:48.538Z,21.30
2022-07-25T03:09:48.558Z,21.32
2022-07-25T03:10:48.528Z,21.32
2022-07-25T03:11:48.500Z,21.34
2022-07-25T03:12:48.498Z,21.32
2022-07-25T03:13:48.479Z,21.32
2022-07-25T03:14:48.478Z,21.32
2022-07-25T03:15:48.499Z,21.34
2022-07-25T03:16:48.465Z,21.34
2022-07-25T03:17:48.437Z,21.37
2022-07-25T03:18:48.428Z,21.37
2022-07-25T03:19:48.420Z,21.35
2022-07-25T03:20:48.429Z,21.35
2022-07-25T03:21:48.428Z,21.37
2022-07-25T03:22:48.387Z,21.37
2022-07-25T03:23:52.493Z,21.38
2022-07-25T03:24:48.367Z,21.41
2022-07-25T03:25:48.349Z,21.41
2022-07-25T03:26:48.349Z,21.41
2022-07-25T03:27:48.358Z,21.40
2022-07-25T03:28:48.329Z,21.40
2022-07-25T03:29:48.311Z,21.40
2022-07-25T03:30:48.301Z,21.37
2022-07-25T03:31:48.359Z,21.37
2022-07-25T03:32:48.279Z,21.35
2022-07-25T03:33:48.289Z,21.34
2022-07-25T03:34:48.260Z,21.35
2022-07-25T03:35:48.239Z,21.34
2022-07-25T03:36:48.239Z,21.32
2022-07-25T03:37:48.221Z,21.32
2022-07-25T03:38:48.209Z,21.30
2022-07-25T03:39:48.260Z,21.32
2022-07-25T03:40:48.197Z,21.32
2022-07-25T03:41:48.180Z,21.32
2022-07-25T03:42:48.169Z,21.35
2022-07-25T03:43:48.178Z,21.34
2022-07-25T03:44:48.150Z,21.37
2022-07-25T03:45:48.572Z,21.37
2022-07-25T03:46:48.131Z,21.40
2022-07-25T03:47:48.118Z,21.40
2022-07-25T03:48:48.173Z,21.41
2022-07-25T03:49:48.090Z,21.41
2022-07-25T03:50:48.139Z,21.43
2022-07-25T03:51:48.080Z,21.44
2022-07-25T03:52:48.059Z,21.44
2022-07-25T03:53:48.050Z,21.43
2022-07-25T03:54:48.061Z,21.41
2022-07-25T03:55:48.080Z,21.35
2022-07-25T03:56:48.020Z,21.30
2022-07-25T03:57:48.010Z,21.30
2022-07-25T03:58:48.000Z,21.32
2022-07-25T03:59:47.980Z,21.32
2022-07-25T04:00:48.056Z,21.32
2022-07-25T04:01:48.016Z,21.30
2022-07-25T04:02:47.996Z,21.30
2022-07-25T04:03:47.940Z,21.30
2022-07-25T04:04:47.960Z,21.32
2022-07-25T04:05:47.949Z,21.32
2022-07-25T04:06:47.961Z,21.37
2022-07-25T04:07:47.901Z,21.38
2022-07-25T04:08:47.901Z,21.38
2022-07-25T04:09:47.880Z,21.40
2022-07-25T04:10:47.903Z,21.41
2022-07-25T04:11:47.852Z,21.43
2022-07-25T04:12:47.841Z,21.44
2022-07-25T04:13:47.831Z,21.45
2022-07-25T04:14:47.823Z,21.44
2022-07-25T04:15:47.886Z,21.47
2022-07-25T04:16:47.851Z,21.48
2022-07-25T04:17:47.831Z,21.51
2022-07-25T04:18:47.811Z,21.51
2022-07-25T04:19:47.766Z,21.51
2022-07-25T04:20:47.783Z,21.51
2022-07-25T04:21:47.751Z,21.53
2022-07-25T04:22:47.803Z,21.55
2022-07-25T04:23:47.725Z,21.58
2022-07-25T04:24:47.748Z,21.60
2022-07-25T04:25:47.702Z,21.63
2022-07-25T04:26:47.693Z,21.63
2022-07-25T04:27:47.682Z,21.65
2022-07-25T04:28:47.711Z,21.66
2022-07-25T04:29:47.664Z,21.67
2022-07-25T04:30:47.684Z,21.67
2022-07-25T04:31:47.705Z,21.67
2022-07-25T04:32:47.643Z,21.69
2022-07-25T04:33:47.624Z,21.69
2022-07-25T04:34:47.603Z,21.73
2022-07-25T04:35:47.593Z,21.75
2022-07-25T04:36:47.614Z,21.77
2022-07-25T04:37:47.643Z,21.80
2022-07-25T04:38:47.563Z,21.81
2022-07-25T04:39:47.554Z,21.84
2022-07-25T04:40:47.545Z,21.90
2022-07-25T04:41:47.533Z,21.93
2022-07-25T04:42:47.521Z,21.97
2022-07-25T04:43:48.858Z,22.00
2022-07-25T04:44:47.493Z,22.03
2022-07-25T04:45:47.579Z,22.06
2022-07-25T04:46:47.473Z,22.11
2022-07-25T04:47:47.473Z,22.15
2022-07-25T04:48:47.509Z,22.18
2022-07-25T04:49:47.452Z,22.21
2022-07-25T04:50:47.435Z,22.23
2022-07-25T04:51:47.424Z,22.27
2022-07-25T04:52:47.415Z,22.30
2022-07-25T04:53:47.404Z,22.31
2022-07-25T04:54:47.420Z,22.34
2022-07-25T04:55:47.398Z,22.37
2022-07-25T04:56:47.364Z,22.40
2022-07-25T04:57:47.363Z,22.43
2022-07-25T04:58:47.375Z,22.46
2022-07-25T04:59:47.347Z,22.49
2022-07-25T05:00:47.573Z,22.52
2022-07-25T05:01:47.365Z,22.55
2022-07-25T05:02:47.304Z,22.59
2022-07-25T05:03:50.520Z,22.61
2022-07-25T05:04:47.285Z,22.64
2022-07-25T05:05:47.282Z,22.66
2022-07-25T05:06:47.294Z,22.68
2022-07-25T05:07:47.271Z,22.70
2022-07-25T05:08:47.270Z,22.71
2022-07-25T05:09:47.255Z,22.74
2022-07-25T05:10:47.216Z,22.77
2022-07-25T05:11:50.480Z,22.77
2022-07-25T05:12:48.205Z,22.81
2022-07-25T05:13:47.204Z,22.81
2022-07-25T05:14:47.195Z,22.83
2022-07-25T05:15:47.174Z,22.85
2022-07-25T05:16:47.231Z,22.88
2022-07-25T05:17:47.156Z,22.88
2022-07-25T05:18:47.135Z,22.91
2022-07-25T05:19:47.237Z,22.92
2022-07-25T05:20:47.116Z,22.95
2022-07-25T05:21:47.136Z,22.96
2022-07-25T05:22:47.128Z,22.99
2022-07-25T05:23:47.087Z,23.01
2022-07-25T05:24:47.076Z,23.01
2022-07-25T05:25:47.069Z,23.04
2022-07-25T05:26:47.056Z,23.04
2022-07-25T05:27:49.617Z,23.07
2022-07-25T05:28:47.060Z,23.08
2022-07-25T05:29:47.028Z,23.10
2022-07-25T05:30:47.011Z,23.11
2022-07-25T05:31:47.115Z,23.13
2022-07-25T05:32:47.000Z,23.11
2022-07-25T05:33:47.027Z,23.13
2022-07-25T05:34:46.991Z,23.13
2022-07-25T05:35:46.973Z,23.14
2022-07-25T05:36:47.510Z,23.15
2022-07-25T05:37:46.953Z,23.15
2022-07-25T05:38:46.928Z,23.17
2022-07-25T05:39:46.969Z,23.21
2022-07-25T05:40:46.925Z,23.26
2022-07-25T05:41:46.938Z,23.28
2022-07-25T05:42:46.880Z,23.28
2022-07-25T05:43:46.877Z,23.29
2022-07-25T05:44:46.857Z,23.31
2022-07-25T05:45:46.858Z,23.33
2022-07-25T05:46:46.873Z,23.34
2022-07-25T05:47:46.868Z,23.39
2022-07-25T05:48:46.912Z,23.44
2022-07-25T05:49:46.809Z,23.46
2022-07-25T05:50:46.801Z,23.49
2022-07-25T05:51:46.801Z,23.51
2022-07-25T05:52:46.810Z,23.55
2022-07-25T05:53:46.808Z,23.59
2022-07-25T05:54:46.765Z,23.61
2022-07-25T05:55:46.749Z,23.61
2022-07-25T05:56:46.752Z,23.61
2022-07-25T05:57:46.780Z,23.61
2022-07-25T05:58:46.711Z,23.61
2022-07-25T05:59:46.712Z,23.61
2022-07-25T06:00:46.705Z,23.63
2022-07-25T06:01:46.887Z,23.66
2022-07-25T06:02:46.946Z,23.66
2022-07-25T06:03:46.668Z,23.67
2022-07-25T06:04:46.652Z,23.67
2022-07-25T06:05:46.690Z,23.69
2022-07-25T06:06:46.630Z,23.66
2022-07-25T06:07:46.630Z,23.67
2022-07-25T06:08:46.672Z,23.67
2022-07-25T06:09:46.609Z,23.66
2022-07-25T06:10:46.590Z,23.69
2022-07-25T06:11:54.513Z,23.69
2022-07-25T06:12:48.690Z,23.70
2022-07-25T06:13:46.562Z,23.70
2022-07-25T06:14:46.751Z,23.70
2022-07-25T06:15:46.540Z,23.71
2022-07-25T06:16:46.645Z,23.74
2022-07-25T06:17:46.518Z,23.73
2022-07-25T06:18:46.510Z,23.76
2022-07-25T06:19:46.715Z,23.73
2022-07-25T06:20:46.491Z,23.74
2022-07-25T06:21:46.478Z,23.76
2022-07-25T06:22:46.471Z,23.76
2022-07-25T06:23:46.462Z,23.79
2022-07-25T06:24:46.441Z,23.82
2022-07-25T06:25:50.280Z,23.84
2022-07-25T06:26:46.427Z,23.89
2022-07-25T06:27:46.411Z,23.91
2022-07-25T06:28:46.395Z,23.94
2022-07-25T06:29:46.395Z,23.97
2022-07-25T06:30:46.383Z,24.00
2022-07-25T06:31:47.222Z,24.03
2022-07-25T06:32:46.352Z,24.06
2022-07-25T06:33:46.362Z,24.13
2022-07-25T06:34:46.342Z,24.16
2022-07-25T06:35:46.336Z,24.19
2022-07-25T06:36:46.403Z,24.22
2022-07-25T06:37:46.353Z,24.26
2022-07-25T06:38:46.301Z,24.29
2022-07-25T06:39:46.406Z,24.34
2022-07-25T06:40:46.277Z,24.38
2022-07-25T06:41:46.262Z,24.44
2022-07-25T06:42:46.260Z,24.47
2022-07-25T06:43:46.274Z,24.52
2022-07-25T06:44:46.224Z,24.56
2022-07-25T06:45:46.232Z,24.60
2022-07-25T06:46:46.252Z,24.66
2022-07-25T06:47:46.204Z,24.71
2022-07-25T06:48:46.338Z,24.76
2022-07-25T06:49:46.203Z,24.81
2022-07-25T06:50:46.162Z,24.85
2022-07-25T06:52:50.451Z,24.96
2022-07-25T06:53:50.472Z,25.00
2022-07-25T06:54:50.441Z,25.04
2022-07-25T06:55:50.441Z,25.09
2022-07-25T06:56:50.392Z,25.12
2022-07-25T06:57:50.392Z,25.15
2022-07-25T06:58:50.434Z,25.16
2022-07-25T06:59:50.372Z,25.19
2022-07-25T07:00:50.421Z,25.21
2022-07-25T07:01:51.795Z,25.23
2022-07-25T07:02:50.487Z,25.27
2022-07-25T07:03:50.366Z,25.30
2022-07-25T07:04:50.522Z,25.31
2022-07-25T07:05:50.305Z,25.34
2022-07-25T07:06:50.293Z,25.37
2022-07-25T07:07:50.302Z,25.40
2022-07-25T07:08:50.307Z,25.43
2022-07-25T07:09:50.283Z,25.46
2022-07-25T07:10:50.254Z,25.45
2022-07-25T07:11:50.273Z,25.48
2022-07-25T07:12:50.260Z,25.48
2022-07-25T07:13:50.215Z,25.49
2022-07-25T07:14:50.223Z,25.49
2022-07-25T07:15:50.420Z,25.52
2022-07-25T07:16:50.245Z,25.52
2022-07-25T07:17:50.214Z,25.52
2022-07-25T07:18:50.255Z,25.53
2022-07-25T07:19:50.180Z,25.53
2022-07-25T07:20:50.191Z,25.53
2022-07-25T07:21:50.134Z,25.56
2022-07-25T07:22:50.135Z,25.58
2022-07-25T07:23:53.501Z,25.63
2022-07-25T07:24:51.827Z,25.66
2022-07-25T07:25:50.094Z,25.66
2022-07-25T07:26:50.115Z,25.68
2022-07-25T07:27:50.075Z,25.68
2022-07-25T07:28:50.065Z,25.71
2022-07-25T07:29:50.047Z,25.73
2022-07-25T07:31:15.285Z,25.71
2022-07-25T07:31:51.101Z,25.73
2022-07-25T07:32:50.045Z,25.73
2022-07-25T07:33:50.015Z,25.74
2022-07-25T07:34:50.015Z,25.74
2022-07-25T07:35:49.987Z,25.75
2022-07-25T07:36:50.026Z,25.78
2022-07-25T07:37:49.967Z,25.81
2022-07-25T07:38:49.956Z,25.83
2022-07-25T07:39:49.980Z,25.85
2022-07-25T07:40:49.936Z,25.85
2022-07-25T07:41:49.967Z,25.89
2022-07-25T07:42:49.927Z,25.90
2022-07-25T07:43:49.915Z,25.92
2022-07-25T07:44:49.897Z,25.96
2022-07-25T07:45:49.888Z,26.01
2022-07-25T07:46:49.913Z,26.04
2022-07-25T07:47:49.949Z,26.07
2022-07-25T07:48:49.940Z,26.11
2022-07-25T07:49:50.474Z,26.16
2022-07-25T07:50:49.915Z,26.21
2022-07-25T07:51:49.998Z,26.27
2022-07-25T07:52:49.866Z,26.31
2022-07-25T07:53:49.857Z,26.38
2022-07-25T07:54:49.847Z,26.42
2022-07-25T07:55:49.878Z,26.45
2022-07-25T07:56:49.886Z,26.52
2022-07-25T07:57:49.845Z,26.58
2022-07-25T07:58:49.749Z,26.65
2022-07-25T07:59:49.740Z,26.68
2022-07-25T08:00:49.769Z,26.75
2022-07-25T08:01:49.808Z,26.79
2022-07-25T08:02:49.772Z,26.83
2022-07-25T08:03:49.700Z,26.88
2022-07-25T08:04:49.719Z,26.95
2022-07-25T08:05:49.680Z,27.01
2022-07-25T08:06:49.670Z,27.07
2022-07-25T08:07:49.649Z,27.12
2022-07-25T08:08:49.663Z,27.16
2022-07-25T08:09:49.681Z,27.20
2022-07-25T08:10:49.634Z,27.25
2022-07-25T08:11:49.619Z,27.30
2022-07-25T08:12:49.609Z,27.31
2022-07-25T08:13:49.600Z,27.31
2022-07-25T08:14:49.618Z,27.30
2022-07-25T08:15:49.619Z,27.30
2022-07-25T08:16:49.570Z,27.27
2022-07-25T08:17:49.552Z,27.27
2022-07-25T08:18:49.541Z,27.26
2022-07-25T08:19:49.598Z,27.27
2022-07-25T08:20:49.522Z,27.30
2022-07-25T08:21:49.512Z,27.30
2022-07-25T08:22:54.429Z,27.34
2022-07-25T08:23:50.485Z,27.35
2022-07-25T08:24:49.484Z,27.35
2022-07-25T08:25:49.501Z,27.37
2022-07-25T08:26:49.455Z,27.37
2022-07-25T08:27:49.442Z,27.37
2022-07-25T08:28:59.887Z,27.40
2022-07-25T08:29:50.423Z,27.42
2022-07-25T08:30:49.478Z,27.44
2022-07-25T08:31:49.562Z,27.47
2022-07-25T08:32:49.429Z,27.52
2022-07-25T08:33:49.379Z,27.54
2022-07-25T08:34:49.372Z,27.58
2022-07-25T08:35:49.390Z,27.63
2022-07-25T08:36:49.395Z,27.64
2022-07-25T08:37:49.343Z,27.64
2022-07-25T08:38:49.333Z,27.63
2022-07-25T08:39:49.313Z,27.61
2022-07-25T08:40:49.305Z,27.54
2022-07-25T08:41:51.012Z,27.52
2022-07-25T08:42:49.323Z,27.52
2022-07-25T08:43:49.287Z,27.50
2022-07-25T08:44:49.282Z,27.49
2022-07-25T08:45:49.287Z,27.47
2022-07-25T08:46:49.322Z,27.45
2022-07-25T08:47:49.234Z,27.47
2022-07-25T08:48:49.356Z,27.47
2022-07-25T08:49:49.228Z,27.50
2022-07-25T08:50:49.209Z,27.52
2022-07-25T08:51:51.709Z,27.52
2022-07-25T08:52:49.198Z,27.53
2022-07-25T08:53:49.177Z,27.52
2022-07-25T08:54:49.165Z,27.50
2022-07-25T08:55:49.145Z,27.50
2022-07-25T08:56:49.184Z,27.53
2022-07-25T08:57:49.136Z,27.54
2022-07-25T08:58:49.184Z,27.58
2022-07-25T08:59:49.123Z,27.61
2022-07-25T09:00:49.151Z,27.63
2022-07-25T09:01:49.201Z,27.63
2022-07-25T09:02:49.274Z,27.61
2022-07-25T09:03:49.075Z,27.57
2022-07-25T09:04:49.130Z,27.57
2022-07-25T09:05:49.071Z,27.54
2022-07-25T09:06:49.172Z,27.54
2022-07-25T09:07:49.058Z,27.53
2022-07-25T09:08:49.092Z,27.52
2022-07-25T09:09:49.015Z,27.50
2022-07-25T09:10:49.042Z,27.45
2022-07-25T09:11:48.986Z,27.44
2022-07-25T09:12:48.976Z,27.44
2022-07-25T09:13:48.957Z,27.44
2022-07-25T09:14:48.977Z,27.42
2022-07-25T09:15:49.559Z,27.41
2022-07-25T09:16:48.938Z,27.41
2022-07-25T09:17:48.916Z,27.40
2022-07-25T09:18:48.910Z,27.38
2022-07-25T09:19:48.905Z,27.38
2022-07-25T09:20:49.031Z,27.38
2022-07-25T09:21:50.029Z,27.38
2022-07-25T09:22:48.876Z,27.37
2022-07-25T09:23:48.879Z,27.38
2022-07-25T09:24:48.851Z,27.44
2022-07-25T09:25:48.838Z,27.47
2022-07-25T09:26:48.896Z,27.54
2022-07-25T09:27:48.816Z,27.60
2022-07-25T09:28:48.819Z,27.64
2022-07-25T09:29:48.799Z,27.64
2022-07-25T09:30:48.821Z,27.66
2022-07-25T09:31:48.776Z,27.63
2022-07-25T09:32:48.809Z,27.58
2022-07-25T09:33:48.759Z,27.58
2022-07-25T09:34:48.740Z,27.58
2022-07-25T09:35:48.730Z,27.53
2022-07-25T09:36:48.727Z,27.57
2022-07-25T09:37:48.830Z,27.58
2022-07-25T09:38:48.701Z,27.61
2022-07-25T09:39:48.746Z,27.64
2022-07-25T09:40:48.718Z,27.66
2022-07-25T09:41:48.700Z,27.69
2022-07-25T09:42:48.662Z,27.70
2022-07-25T09:43:48.708Z,27.75
2022-07-25T09:44:48.642Z,27.78
2022-07-25T09:45:48.708Z,27.79
2022-07-25T09:46:48.666Z,27.79
2022-07-25T09:47:48.600Z,27.82
2022-07-25T09:48:48.624Z,27.83
2022-07-25T09:49:48.610Z,27.80
2022-07-25T09:50:48.573Z,27.83
2022-07-25T09:51:48.572Z,27.82
2022-07-25T09:52:48.583Z,27.83
2022-07-25T09:53:48.542Z,27.87
2022-07-25T09:54:48.565Z,27.90
2022-07-25T09:55:48.522Z,27.97
2022-07-25T09:56:48.511Z,28.01
2022-07-25T09:57:48.502Z,28.03
2022-07-25T09:58:48.519Z,28.07
2022-07-25T09:59:48.480Z,28.09
2022-07-25T10:00:48.502Z,28.09
2022-07-25T10:01:48.526Z,28.07
2022-07-25T10:02:48.524Z,28.07
2022-07-25T10:03:48.462Z,28.10
2022-07-25T10:04:48.425Z,28.12
2022-07-25T10:05:48.449Z,28.16
2022-07-25T10:06:48.410Z,28.19
2022-07-25T10:07:48.393Z,28.20
2022-07-25T10:08:48.454Z,28.20
2022-07-25T10:09:48.372Z,28.19
2022-07-25T10:10:48.382Z,28.15
2022-07-25T10:11:48.353Z,28.10
2022-07-25T10:12:48.430Z,28.05
2022-07-25T10:13:48.353Z,28.03
2022-07-25T10:14:48.358Z,28.05
2022-07-25T10:15:48.305Z,27.98
2022-07-25T10:16:48.367Z,27.98
2022-07-25T10:17:48.284Z,28.00
2022-07-25T10:18:48.324Z,27.98
2022-07-25T10:19:52.949Z,28.00
2022-07-25T10:20:49.326Z,28.05
2022-07-25T10:21:48.243Z,28.03
2022-07-25T10:22:57.120Z,28.03
2022-07-25T10:23:49.274Z,28.09
2022-07-25T10:24:48.235Z,28.09
2022-07-25T10:25:49.271Z,28.05
2022-07-25T10:26:48.215Z,27.97
2022-07-25T10:27:48.192Z,27.88
2022-07-25T10:28:48.176Z,27.87
2022-07-25T10:29:48.156Z,27.85
2022-07-25T10:30:48.242Z,27.80
2022-07-25T10:31:51.441Z,27.78
2022-07-25T10:32:48.139Z,27.72
2022-07-25T10:33:48.117Z,27.64
2022-07-25T10:34:48.108Z,27.54
2022-07-25T10:35:48.095Z,27.47
2022-07-25T10:36:48.095Z,27.44
2022-07-25T10:37:49.867Z,27.38
2022-07-25T10:38:48.078Z,27.34
2022-07-25T10:39:48.090Z,27.32
2022-07-25T10:40:48.057Z,27.34
2022-07-25T10:41:48.039Z,27.38
2022-07-25T10:42:48.026Z,27.41
2022-07-25T10:43:48.829Z,27.44
2022-07-25T10:44:48.008Z,27.47
2022-07-25T10:45:48.113Z,27.47
2022-07-25T10:46:47.989Z,27.50
2022-07-25T10:47:47.978Z,27.49
2022-07-25T10:48:48.015Z,27.41
2022-07-25T10:50:15.171Z,27.38
2022-07-25T10:50:56.913Z,27.40
2022-07-25T10:51:48.937Z,27.41
2022-07-25T10:52:47.952Z,27.40
2022-07-25T10:53:47.949Z,27.40
2022-07-25T10:54:47.908Z,27.41
2022-07-25T10:56:04.843Z,27.40
2022-07-25T10:56:48.923Z,27.44
2022-07-25T10:58:15.155Z,27.45
2022-07-25T10:58:48.867Z,27.52
2022-07-25T10:59:47.878Z,27.54
2022-07-25T11:00:47.840Z,27.58
2022-07-25T11:01:47.863Z,27.64
2022-07-25T11:02:47.870Z,27.63
2022-07-25T11:03:47.814Z,27.63
2022-07-25T11:04:47.836Z,27.66
2022-07-25T11:05:47.788Z,27.69
2022-07-25T11:06:47.780Z,27.69
2022-07-25T11:08:11.142Z,27.68
2022-07-25T11:08:48.759Z,27.60
2022-07-25T11:09:47.789Z,27.60
2022-07-25T11:10:47.762Z,27.61
2022-07-25T11:11:47.729Z,27.58
2022-07-25T11:12:47.711Z,27.61
2022-07-25T11:13:47.710Z,27.68
2022-07-25T11:14:47.753Z,27.69
2022-07-25T11:15:47.694Z,27.70
2022-07-25T11:16:47.725Z,27.69
2022-07-25T11:17:47.692Z,27.72
2022-07-25T11:18:47.651Z,27.68
2022-07-25T11:19:47.650Z,27.63
2022-07-25T11:20:47.653Z,27.63
2022-07-25T11:21:47.623Z,27.68
2022-07-25T11:22:47.612Z,27.70
2022-07-25T11:23:47.604Z,27.76
2022-07-25T11:24:47.644Z,27.80
2022-07-25T11:25:47.584Z,27.83
2022-07-25T11:26:47.563Z,27.87
2022-07-25T11:27:47.562Z,27.90
2022-07-25T11:28:47.572Z,27.90
2022-07-25T11:29:47.564Z,27.94
2022-07-25T11:30:47.569Z,27.95
2022-07-25T11:31:47.588Z,27.97
2022-07-25T11:32:47.505Z,28.01
2022-07-25T11:33:47.491Z,28.06
2022-07-25T11:34:47.481Z,28.06
2022-07-25T11:35:47.482Z,28.03
2022-07-25T11:36:47.496Z,28.00
2022-07-25T11:37:49.284Z,27.95
2022-07-25T11:38:47.534Z,27.88
2022-07-25T11:39:47.465Z,27.87
2022-07-25T11:40:47.414Z,27.85
2022-07-25T11:41:47.413Z,27.87
2022-07-25T11:42:47.398Z,27.88
2022-07-25T11:43:47.395Z,27.90
2022-07-25T11:44:48.269Z,27.90
2022-07-25T11:45:47.397Z,27.94
2022-07-25T11:46:47.357Z,28.03
2022-07-25T11:47:47.357Z,28.09
2022-07-25T11:48:47.395Z,28.15
2022-07-25T11:49:47.344Z,28.17
2022-07-25T11:50:47.358Z,28.15
2022-07-25T11:51:47.355Z,28.07
2022-07-25T11:52:47.326Z,28.07
2022-07-25T11:53:47.297Z,28.01
2022-07-25T11:54:47.270Z,28.01
2022-07-25T11:55:47.305Z,28.07
2022-07-25T11:56:47.257Z,28.10
2022-07-25T11:57:47.258Z,28.17
2022-07-25T11:58:47.227Z,28.20
2022-07-25T11:59:47.238Z,28.15
2022-07-25T12:00:47.225Z,28.07
2022-07-25T12:01:47.476Z,27.98
2022-07-25T12:02:47.354Z,27.91
2022-07-25T12:03:50.431Z,27.88
2022-07-25T12:04:47.187Z,27.94
2022-07-25T12:05:47.168Z,28.05
2022-07-25T12:06:47.148Z,28.12
2022-07-25T12:07:47.147Z,28.20
2022-07-25T12:08:49.658Z,28.19
2022-07-25T12:09:47.168Z,28.09
2022-07-25T12:10:47.106Z,28.00
2022-07-25T12:11:47.112Z,28.03
2022-07-25T12:12:47.089Z,28.07
2022-07-25T12:13:47.069Z,28.01
2022-07-25T12:14:47.106Z,28.00
2022-07-25T12:15:47.150Z,28.03
2022-07-25T12:16:47.111Z,28.03
2022-07-25T12:17:47.058Z,28.06
2022-07-25T12:18:47.018Z,28.00
2022-07-25T12:19:47.021Z,28.00
2022-07-25T12:20:46.999Z,28.03
2022-07-25T12:21:47.051Z,28.10
2022-07-25T12:22:46.985Z,28.16
2022-07-25T12:23:46.978Z,28.15
2022-07-25T12:24:47.035Z,28.01
2022-07-25T12:25:46.956Z,27.94
2022-07-25T12:26:46.975Z,27.90
2022-07-25T12:27:46.970Z,27.87
2022-07-25T12:28:46.958Z,27.82
2022-07-25T12:29:46.951Z,27.75
2022-07-25T12:30:47.001Z,27.69
2022-07-25T12:31:46.936Z,27.64
2022-07-25T12:32:46.880Z,27.63
2022-07-25T12:33:46.895Z,27.61
2022-07-25T12:34:46.864Z,27.61
2022-07-25T12:35:46.850Z,27.61
2022-07-25T12:36:46.843Z,27.66
2022-07-25T12:37:47.970Z,27.68
2022-07-25T12:38:46.815Z,27.72
2022-07-25T12:39:46.812Z,27.69
2022-07-25T12:40:46.831Z,27.69
2022-07-25T12:41:46.863Z,27.66
2022-07-25T12:42:46.779Z,27.69
2022-07-25T12:43:46.775Z,27.73
2022-07-25T12:44:46.770Z,27.79
2022-07-25T12:45:46.804Z,27.83
2022-07-25T12:46:49.513Z,27.90
2022-07-25T12:47:46.728Z,27.93
2022-07-25T12:48:46.753Z,27.90
2022-07-25T12:49:46.722Z,27.90
2022-07-25T12:50:46.695Z,27.91
2022-07-25T12:51:46.732Z,27.94
2022-07-25T12:52:53.727Z,27.88
2022-07-25T12:53:46.660Z,27.83